sensor_id;sensor_type;location;lat;lon;timestamp;temperature;humidity
67101;DHT22;54019;61.746;16.106;2023-02-01T00:02:01;22.40;24.80
67101;DHT22;54019;61.746;16.106;2023-02-01T00:04:27;22.50;24.90
67101;DHT22;54019;61.746;16.106;2023-02-01T00:06:53;22.50;24.80
67101;DHT22;54019;61.746;16.106;2023-02-01T00:09:19;22.50;24.70
67101;DHT22;54019;61.746;16.106;2023-02-01T00:11:45;22.60;24.70
67101;DHT22;54019;61.746;16.106;2023-02-01T00:14:12;22.50;24.70
67101;DHT22;54019;61.746;16.106;2023-02-01T00:16:38;22.50;24.80
67101;DHT22;54019;61.746;16.106;2023-02-01T00:19:06;22.50;24.80
67101;DHT22;54019;61.746;16.106;2023-02-01T00:21:33;22.50;24.80
67101;DHT22;54019;61.746;16.106;2023-02-01T00:23:59;22.50;24.90
67101;DHT22;54019;61.746;16.106;2023-02-01T00:26:31;22.40;24.80
67101;DHT22;54019;61.746;16.106;2023-02-01T00:28:57;22.40;24.80
67101;DHT22;54019;61.746;16.106;2023-02-01T00:31:23;22.40;25.40
67101;DHT22;54019;61.746;16.106;2023-02-01T00:33:49;22.40;24.80
67101;DHT22;54019;61.746;16.106;2023-02-01T00:36:16;22.40;24.80
67101;DHT22;54019;61.746;16.106;2023-02-01T00:38:42;22.50;24.80
67101;DHT22;54019;61.746;16.106;2023-02-01T00:41:10;22.40;24.80
67101;DHT22;54019;61.746;16.106;2023-02-01T00:43:37;22.40;24.70
67101;DHT22;54019;61.746;16.106;2023-02-01T00:46:03;22.50;24.70
67101;DHT22;54019;61.746;16.106;2023-02-01T00:48:29;22.50;24.70
67101;DHT22;54019;61.746;16.106;2023-02-01T00:50:59;22.50;24.70
67101;DHT22;54019;61.746;16.106;2023-02-01T00:53:26;22.50;24.60
67101;DHT22;54019;61.746;16.106;2023-02-01T00:55:52;22.60;24.50
67101;DHT22;54019;61.746;16.106;2023-02-01T00:58:18;22.60;24.50
67101;DHT22;54019;61.746;16.106;2023-02-01T01:00:43;22.60;24.40
67101;DHT22;54019;61.746;16.106;2023-02-01T01:03:09;22.60;24.40
67101;DHT22;54019;61.746;16.106;2023-02-01T01:05:35;22.50;24.50
67101;DHT22;54019;61.746;16.106;2023-02-01T01:08:01;22.50;24.60
67101;DHT22;54019;61.746;16.106;2023-02-01T01:10:28;22.40;24.50
67101;DHT22;54019;61.746;16.106;2023-02-01T01:12:54;22.40;24.60
67101;DHT22;54019;61.746;16.106;2023-02-01T01:15:21;22.40;24.60
67101;DHT22;54019;61.746;16.106;2023-02-01T01:17:47;22.40;24.60
67101;DHT22;54019;61.746;16.106;2023-02-01T01:20:12;22.50;24.60
67101;DHT22;54019;61.746;16.106;2023-02-01T01:22:38;22.50;24.70
67101;DHT22;54019;61.746;16.106;2023-02-01T01:25:05;22.40;24.50
67101;DHT22;54019;61.746;16.106;2023-02-01T01:27:33;22.50;24.50
67101;DHT22;54019;61.746;16.106;2023-02-01T01:29:58;22.50;24.40
67101;DHT22;54019;61.746;16.106;2023-02-01T01:32:24;22.60;24.30
67101;DHT22;54019;61.746;16.106;2023-02-01T01:34:50;22.60;24.20
67101;DHT22;54019;61.746;16.106;2023-02-01T01:37:16;22.50;24.20
67101;DHT22;54019;61.746;16.106;2023-02-01T01:39:41;22.60;24.20
67101;DHT22;54019;61.746;16.106;2023-02-01T01:42:10;22.60;24.20
67101;DHT22;54019;61.746;16.106;2023-02-01T01:44:59;22.50;24.30
67101;DHT22;54019;61.746;16.106;2023-02-01T01:47:26;22.50;24.30
67101;DHT22;54019;61.746;16.106;2023-02-01T01:49:55;22.50;24.40
67101;DHT22;54019;61.746;16.106;2023-02-01T01:52:21;22.40;24.30
67101;DHT22;54019;61.746;16.106;2023-02-01T01:54:50;22.40;24.30
67101;DHT22;54019;61.746;16.106;2023-02-01T01:57:18;22.40;24.40
67101;DHT22;54019;61.746;16.106;2023-02-01T01:59:50;22.40;25.00
67101;DHT22;54019;61.746;16.106;2023-02-01T02:02:21;22.40;24.30
67101;DHT22;54019;61.746;16.106;2023-02-01T02:04:47;22.40;24.20
67101;DHT22;54019;61.746;16.106;2023-02-01T02:07:17;22.50;24.30
67101;DHT22;54019;61.746;16.106;2023-02-01T02:09:45;22.50;24.30
67101;DHT22;54019;61.746;16.106;2023-02-01T02:12:11;22.50;24.20
67101;DHT22;54019;61.746;16.106;2023-02-01T02:14:37;22.50;24.20
67101;DHT22;54019;61.746;16.106;2023-02-01T02:17:20;22.60;24.10
67101;DHT22;54019;61.746;16.106;2023-02-01T02:23:29;22.50;24.10
67101;DHT22;54019;61.746;16.106;2023-02-01T02:26:24;22.50;24.10
67101;DHT22;54019;61.746;16.106;2023-02-01T02:32:32;22.40;24.10
67101;DHT22;54019;61.746;16.106;2023-02-01T02:35:07;22.40;24.10
67101;DHT22;54019;61.746;16.106;2023-02-01T02:37:40;22.40;24.10
67101;DHT22;54019;61.746;16.106;2023-02-01T02:40:14;22.40;24.10
67101;DHT22;54019;61.746;16.106;2023-02-01T02:42:46;22.40;24.10
67101;DHT22;54019;61.746;16.106;2023-02-01T02:45:16;22.40;24.10
67101;DHT22;54019;61.746;16.106;2023-02-01T02:47:46;22.40;24.10
67101;DHT22;54019;61.746;16.106;2023-02-01T02:50:22;22.50;24.10
67101;DHT22;54019;61.746;16.106;2023-02-01T02:52:52;22.50;24.00
67101;DHT22;54019;61.746;16.106;2023-02-01T02:55:23;22.50;23.90
67101;DHT22;54019;61.746;16.106;2023-02-01T02:57:50;22.60;23.80
67101;DHT22;54019;61.746;16.106;2023-02-01T03:00:19;22.60;23.60
67101;DHT22;54019;61.746;16.106;2023-02-01T03:02:47;22.60;23.60
67101;DHT22;54019;61.746;16.106;2023-02-01T03:05:13;22.60;23.60
67101;DHT22;54019;61.746;16.106;2023-02-01T03:07:53;22.60;23.60
67101;DHT22;54019;61.746;16.106;2023-02-01T03:10:26;22.50;23.70
67101;DHT22;54019;61.746;16.106;2023-02-01T03:13:02;22.50;23.80
67101;DHT22;54019;61.746;16.106;2023-02-01T03:15:32;22.40;23.70
67101;DHT22;54019;61.746;16.106;2023-02-01T03:18:01;22.40;23.70
67101;DHT22;54019;61.746;16.106;2023-02-01T03:20:28;22.40;23.80
67101;DHT22;54019;61.746;16.106;2023-02-01T03:22:57;22.40;23.80
67101;DHT22;54019;61.746;16.106;2023-02-01T03:25:27;22.40;23.80
67101;DHT22;54019;61.746;16.106;2023-02-01T03:27:57;22.40;23.70
67101;DHT22;54019;61.746;16.106;2023-02-01T03:30:28;22.40;24.30
67101;DHT22;54019;61.746;16.106;2023-02-01T03:32:57;22.50;23.70
67101;DHT22;54019;61.746;16.106;2023-02-01T03:35:29;22.50;23.60
67101;DHT22;54019;61.746;16.106;2023-02-01T03:38:03;22.50;23.60
67101;DHT22;54019;61.746;16.106;2023-02-01T03:40:36;22.50;23.50
67101;DHT22;54019;61.746;16.106;2023-02-01T03:43:05;22.50;23.50
67101;DHT22;54019;61.746;16.106;2023-02-01T03:45:35;22.50;23.50
67101;DHT22;54019;61.746;16.106;2023-02-01T03:48:03;22.50;23.50
67101;DHT22;54019;61.746;16.106;2023-02-01T03:50:31;22.50;23.60
67101;DHT22;54019;61.746;16.106;2023-02-01T03:53:05;22.50;24.30
67101;DHT22;54019;61.746;16.106;2023-02-01T03:55:32;22.50;23.70
67101;DHT22;54019;61.746;16.106;2023-02-01T03:58:03;22.40;23.70
67101;DHT22;54019;61.746;16.106;2023-02-01T04:00:31;22.40;23.70
67101;DHT22;54019;61.746;16.106;2023-02-01T04:02:57;22.40;24.30
67101;DHT22;54019;61.746;16.106;2023-02-01T04:05:23;22.40;23.80
67101;DHT22;54019;61.746;16.106;2023-02-01T04:07:49;22.40;23.70
67101;DHT22;54019;61.746;16.106;2023-02-01T04:10:17;22.40;23.70
67101;DHT22;54019;61.746;16.106;2023-02-01T04:12:42;22.40;23.70
67101;DHT22;54019;61.746;16.106;2023-02-01T04:15:09;22.50;23.80
67101;DHT22;54019;61.746;16.106;2023-02-01T04:17:35;22.50;23.70
67101;DHT22;54019;61.746;16.106;2023-02-01T04:20:01;22.50;23.60
67101;DHT22;54019;61.746;16.106;2023-02-01T04:22:26;22.60;23.50
67101;DHT22;54019;61.746;16.106;2023-02-01T04:24:52;22.60;23.50
67101;DHT22;54019;61.746;16.106;2023-02-01T04:27:19;22.60;23.30
67101;DHT22;54019;61.746;16.106;2023-02-01T04:29:45;22.60;23.30
67101;DHT22;54019;61.746;16.106;2023-02-01T04:32:11;22.60;23.30
67101;DHT22;54019;61.746;16.106;2023-02-01T04:34:37;22.60;23.30
67101;DHT22;54019;61.746;16.106;2023-02-01T04:37:03;22.50;23.40
67101;DHT22;54019;61.746;16.106;2023-02-01T04:39:28;22.50;23.50
67101;DHT22;54019;61.746;16.106;2023-02-01T04:41:54;22.50;23.60
67101;DHT22;54019;61.746;16.106;2023-02-01T04:44:22;22.40;23.60
67101;DHT22;54019;61.746;16.106;2023-02-01T04:46:47;22.50;23.60
67101;DHT22;54019;61.746;16.106;2023-02-01T04:49:14;22.40;23.60
67101;DHT22;54019;61.746;16.106;2023-02-01T04:51:40;22.40;23.50
67101;DHT22;54019;61.746;16.106;2023-02-01T04:54:07;22.50;23.40
67101;DHT22;54019;61.746;16.106;2023-02-01T04:56:33;22.50;23.20
67101;DHT22;54019;61.746;16.106;2023-02-01T04:58:59;22.60;23.50
67101;DHT22;54019;61.746;16.106;2023-02-01T05:01:26;22.60;23.50
67101;DHT22;54019;61.746;16.106;2023-02-01T05:03:52;22.70;23.50
67101;DHT22;54019;61.746;16.106;2023-02-01T05:06:18;22.60;24.10
67101;DHT22;54019;61.746;16.106;2023-02-01T05:08:43;22.70;23.70
67101;DHT22;54019;61.746;16.106;2023-02-01T05:11:09;22.70;23.70
67101;DHT22;54019;61.746;16.106;2023-02-01T05:13:35;22.60;23.70
67101;DHT22;54019;61.746;16.106;2023-02-01T05:16:01;22.60;23.80
67101;DHT22;54019;61.746;16.106;2023-02-01T05:18:28;22.60;23.80
67101;DHT22;54019;61.746;16.106;2023-02-01T05:20:54;22.60;23.60
67101;DHT22;54019;61.746;16.106;2023-02-01T05:23:20;22.50;23.30
67101;DHT22;54019;61.746;16.106;2023-02-01T05:25:46;22.50;23.60
67101;DHT22;54019;61.746;16.106;2023-02-01T05:28:12;22.50;23.60
67101;DHT22;54019;61.746;16.106;2023-02-01T05:30:37;22.50;23.50
67101;DHT22;54019;61.746;16.106;2023-02-01T05:33:04;22.50;23.60
67101;DHT22;54019;61.746;16.106;2023-02-01T05:35:31;22.50;23.60
67101;DHT22;54019;61.746;16.106;2023-02-01T05:37:57;22.50;23.60
67101;DHT22;54019;61.746;16.106;2023-02-01T05:40:23;22.50;23.60
67101;DHT22;54019;61.746;16.106;2023-02-01T05:42:48;22.60;23.50
67101;DHT22;54019;61.746;16.106;2023-02-01T05:45:14;22.60;23.50
67101;DHT22;54019;61.746;16.106;2023-02-01T05:47:40;22.60;23.40
67101;DHT22;54019;61.746;16.106;2023-02-01T05:50:07;22.60;23.30
67101;DHT22;54019;61.746;16.106;2023-02-01T05:52:34;22.70;23.30
67101;DHT22;54019;61.746;16.106;2023-02-01T05:55:00;22.60;23.20
67101;DHT22;54019;61.746;16.106;2023-02-01T05:57:25;22.60;23.30
67101;DHT22;54019;61.746;16.106;2023-02-01T05:59:51;22.60;23.50
67101;DHT22;54019;61.746;16.106;2023-02-01T06:02:17;22.50;23.40
67101;DHT22;54019;61.746;16.106;2023-02-01T06:04:43;22.50;23.50
67101;DHT22;54019;61.746;16.106;2023-02-01T06:07:09;22.50;23.60
67101;DHT22;54019;61.746;16.106;2023-02-01T06:09:36;22.40;23.70
67101;DHT22;54019;61.746;16.106;2023-02-01T06:12:03;22.40;23.70
67101;DHT22;54019;61.746;16.106;2023-02-01T06:14:29;22.50;23.90
67101;DHT22;54019;61.746;16.106;2023-02-01T06:16:55;22.50;23.80
67101;DHT22;54019;61.746;16.106;2023-02-01T06:19:22;22.50;23.70
67101;DHT22;54019;61.746;16.106;2023-02-01T06:21:48;22.60;23.60
67101;DHT22;54019;61.746;16.106;2023-02-01T06:24:14;22.60;23.50
67101;DHT22;54019;61.746;16.106;2023-02-01T06:26:41;22.70;23.50
67101;DHT22;54019;61.746;16.106;2023-02-01T06:29:07;22.70;23.20
67101;DHT22;54019;61.746;16.106;2023-02-01T06:31:33;22.60;23.40
67101;DHT22;54019;61.746;16.106;2023-02-01T06:33:59;22.60;23.60
67101;DHT22;54019;61.746;16.106;2023-02-01T06:36:24;22.60;24.00
67101;DHT22;54019;61.746;16.106;2023-02-01T06:38:50;22.60;24.40
67101;DHT22;54019;61.746;16.106;2023-02-01T06:41:16;22.70;24.70
67101;DHT22;54019;61.746;16.106;2023-02-01T06:43:43;22.70;24.70
67101;DHT22;54019;61.746;16.106;2023-02-01T06:46:11;22.70;24.60
67101;DHT22;54019;61.746;16.106;2023-02-01T06:48:38;22.80;24.80
67101;DHT22;54019;61.746;16.106;2023-02-01T06:51:04;23.00;24.70
67101;DHT22;54019;61.746;16.106;2023-02-01T06:53:30;23.10;24.70
67101;DHT22;54019;61.746;16.106;2023-02-01T06:55:57;23.30;25.40
67101;DHT22;54019;61.746;16.106;2023-02-01T06:58:24;23.40;25.40
67101;DHT22;54019;61.746;16.106;2023-02-01T07:00:51;23.50;25.40
67101;DHT22;54019;61.746;16.106;2023-02-01T07:03:17;23.60;25.80
67101;DHT22;54019;61.746;16.106;2023-02-01T07:05:42;23.70;26.10
67101;DHT22;54019;61.746;16.106;2023-02-01T07:08:08;23.80;27.80
67101;DHT22;54019;61.746;16.106;2023-02-01T07:10:34;23.90;27.00
67101;DHT22;54019;61.746;16.106;2023-02-01T07:13:00;23.90;27.20
67101;DHT22;54019;61.746;16.106;2023-02-01T07:15:26;23.80;26.90
67101;DHT22;54019;61.746;16.106;2023-02-01T07:17:54;23.80;26.90
67101;DHT22;54019;61.746;16.106;2023-02-01T07:20:20;23.80;26.80
67101;DHT22;54019;61.746;16.106;2023-02-01T07:22:45;23.70;27.20
67101;DHT22;54019;61.746;16.106;2023-02-01T07:25:11;23.70;27.00
67101;DHT22;54019;61.746;16.106;2023-02-01T07:27:37;23.70;27.00
67101;DHT22;54019;61.746;16.106;2023-02-01T07:30:05;23.70;26.90
67101;DHT22;54019;61.746;16.106;2023-02-01T07:32:31;23.80;27.00
67101;DHT22;54019;61.746;16.106;2023-02-01T07:34:58;23.80;26.80
67101;DHT22;54019;61.746;16.106;2023-02-01T07:37:24;23.80;26.70
67101;DHT22;54019;61.746;16.106;2023-02-01T07:39:51;23.80;26.50
67101;DHT22;54019;61.746;16.106;2023-02-01T07:42:17;23.80;26.50
67101;DHT22;54019;61.746;16.106;2023-02-01T07:44:43;23.80;26.50
67101;DHT22;54019;61.746;16.106;2023-02-01T07:47:09;23.70;26.40
67101;DHT22;54019;61.746;16.106;2023-02-01T07:49:34;23.60;25.40
67101;DHT22;54019;61.746;16.106;2023-02-01T07:52:05;23.50;25.10
67101;DHT22;54019;61.746;16.106;2023-02-01T07:54:30;23.40;25.40
67101;DHT22;54019;61.746;16.106;2023-02-01T07:56:58;23.40;25.50
67101;DHT22;54019;61.746;16.106;2023-02-01T07:59:23;23.30;25.60
67101;DHT22;54019;61.746;16.106;2023-02-01T08:01:49;23.30;25.80
67101;DHT22;54019;61.746;16.106;2023-02-01T08:04:15;23.30;25.90
67101;DHT22;54019;61.746;16.106;2023-02-01T08:06:41;23.20;25.90
67101;DHT22;54019;61.746;16.106;2023-02-01T08:09:08;23.20;26.00
67101;DHT22;54019;61.746;16.106;2023-02-01T08:11:34;23.20;26.00
67101;DHT22;54019;61.746;16.106;2023-02-01T08:14:00;23.20;26.00
67101;DHT22;54019;61.746;16.106;2023-02-01T08:16:26;23.20;26.00
67101;DHT22;54019;61.746;16.106;2023-02-01T08:18:52;23.20;26.00
67101;DHT22;54019;61.746;16.106;2023-02-01T08:21:19;23.10;26.00
67101;DHT22;54019;61.746;16.106;2023-02-01T08:23:45;23.10;26.20
67101;DHT22;54019;61.746;16.106;2023-02-01T08:26:14;23.00;26.30
67101;DHT22;54019;61.746;16.106;2023-02-01T08:28:41;23.00;26.60
67101;DHT22;54019;61.746;16.106;2023-02-01T08:31:08;23.00;26.70
67101;DHT22;54019;61.746;16.106;2023-02-01T08:33:34;23.00;26.70
67101;DHT22;54019;61.746;16.106;2023-02-01T08:36:01;22.90;26.80
67101;DHT22;54019;61.746;16.106;2023-02-01T08:38:27;22.90;26.90
67101;DHT22;54019;61.746;16.106;2023-02-01T08:40:53;22.90;27.00
67101;DHT22;54019;61.746;16.106;2023-02-01T08:43:20;22.90;27.00
67101;DHT22;54019;61.746;16.106;2023-02-01T08:45:46;22.90;26.80
67101;DHT22;54019;61.746;16.106;2023-02-01T08:48:12;23.00;27.10
67101;DHT22;54019;61.746;16.106;2023-02-01T08:50:37;23.00;27.20
67101;DHT22;54019;61.746;16.106;2023-02-01T08:53:03;23.10;27.20
67101;DHT22;54019;61.746;16.106;2023-02-01T08:55:29;23.10;27.00
67101;DHT22;54019;61.746;16.106;2023-02-01T08:57:55;23.10;26.90
67101;DHT22;54019;61.746;16.106;2023-02-01T09:00:23;23.20;26.70
67101;DHT22;54019;61.746;16.106;2023-02-01T09:02:49;23.20;26.50
67101;DHT22;54019;61.746;16.106;2023-02-01T09:05:15;23.20;26.40
67101;DHT22;54019;61.746;16.106;2023-02-01T09:07:41;23.30;26.50
67101;DHT22;54019;61.746;16.106;2023-02-01T09:10:07;23.30;26.70
67101;DHT22;54019;61.746;16.106;2023-02-01T09:12:35;23.30;27.00
67101;DHT22;54019;61.746;16.106;2023-02-01T09:15:01;23.40;33.60
67101;DHT22;54019;61.746;16.106;2023-02-01T09:17:28;23.50;34.10
67101;DHT22;54019;61.746;16.106;2023-02-01T09:19:54;23.40;30.10
67101;DHT22;54019;61.746;16.106;2023-02-01T09:22:20;23.40;29.10
67101;DHT22;54019;61.746;16.106;2023-02-01T09:24:46;23.40;28.90
67101;DHT22;54019;61.746;16.106;2023-02-01T09:27:12;23.50;28.30
67101;DHT22;54019;61.746;16.106;2023-02-01T09:29:37;23.50;27.70
67101;DHT22;54019;61.746;16.106;2023-02-01T09:32:04;23.50;27.30
67101;DHT22;54019;61.746;16.106;2023-02-01T09:34:31;23.60;27.20
67101;DHT22;54019;61.746;16.106;2023-02-01T09:36:57;23.60;27.20
67101;DHT22;54019;61.746;16.106;2023-02-01T09:39:23;23.60;27.10
67101;DHT22;54019;61.746;16.106;2023-02-01T09:41:57;23.70;27.10
67101;DHT22;54019;61.746;16.106;2023-02-01T09:44:37;23.70;27.10
67101;DHT22;54019;61.746;16.106;2023-02-01T09:47:11;23.60;27.10
67101;DHT22;54019;61.746;16.106;2023-02-01T09:49:45;23.60;27.10
67101;DHT22;54019;61.746;16.106;2023-02-01T09:52:14;23.60;27.00
67101;DHT22;54019;61.746;16.106;2023-02-01T09:54:42;23.50;27.00
67101;DHT22;54019;61.746;16.106;2023-02-01T09:57:14;23.50;27.10
67101;DHT22;54019;61.746;16.106;2023-02-01T09:59:43;23.40;26.90
67101;DHT22;54019;61.746;16.106;2023-02-01T10:02:13;23.40;26.80
67101;DHT22;54019;61.746;16.106;2023-02-01T10:04:41;23.50;26.60
67101;DHT22;54019;61.746;16.106;2023-02-01T10:07:16;23.50;26.60
67101;DHT22;54019;61.746;16.106;2023-02-01T10:09:58;23.50;26.60
67101;DHT22;54019;61.746;16.106;2023-02-01T10:15:48;23.60;26.30
67101;DHT22;54019;61.746;16.106;2023-02-01T10:21:10;23.70;26.10
67101;DHT22;54019;61.746;16.106;2023-02-01T10:23:52;23.70;25.90
67101;DHT22;54019;61.746;16.106;2023-02-01T10:26:21;23.70;25.70
67101;DHT22;54019;61.746;16.106;2023-02-01T10:28:50;23.70;25.90
67101;DHT22;54019;61.746;16.106;2023-02-01T10:31:17;23.70;25.70
67101;DHT22;54019;61.746;16.106;2023-02-01T10:33:45;23.70;25.70
67101;DHT22;54019;61.746;16.106;2023-02-01T10:36:16;23.60;25.50
67101;DHT22;54019;61.746;16.106;2023-02-01T10:38:50;23.60;25.40
67101;DHT22;54019;61.746;16.106;2023-02-01T10:44:22;23.50;25.80
67101;DHT22;54019;61.746;16.106;2023-02-01T10:46:50;23.60;26.00
67101;DHT22;54019;61.746;16.106;2023-02-01T10:49:20;23.60;25.70
67101;DHT22;54019;61.746;16.106;2023-02-01T10:51:52;23.60;26.00
67101;DHT22;54019;61.746;16.106;2023-02-01T10:54:31;23.60;25.90
67101;DHT22;54019;61.746;16.106;2023-02-01T10:57:00;23.70;25.80
67101;DHT22;54019;61.746;16.106;2023-02-01T10:59:29;23.60;26.10
67101;DHT22;54019;61.746;16.106;2023-02-01T11:01:59;23.70;26.50
67101;DHT22;54019;61.746;16.106;2023-02-01T11:04:26;23.70;26.60
67101;DHT22;54019;61.746;16.106;2023-02-01T11:07:06;23.70;26.50
67101;DHT22;54019;61.746;16.106;2023-02-01T11:09:32;23.70;26.40
67101;DHT22;54019;61.746;16.106;2023-02-01T11:12:00;23.80;26.30
67101;DHT22;54019;61.746;16.106;2023-02-01T11:14:34;23.80;26.20
67101;DHT22;54019;61.746;16.106;2023-02-01T11:17:01;23.80;26.00
67101;DHT22;54019;61.746;16.106;2023-02-01T11:19:42;23.80;25.80
67101;DHT22;54019;61.746;16.106;2023-02-01T11:22:12;23.80;25.70
67101;DHT22;54019;61.746;16.106;2023-02-01T11:24:44;23.80;25.70
67101;DHT22;54019;61.746;16.106;2023-02-01T11:27:16;23.70;25.60
67101;DHT22;54019;61.746;16.106;2023-02-01T11:29:44;23.70;25.60
67101;DHT22;54019;61.746;16.106;2023-02-01T11:32:13;23.70;25.50
67101;DHT22;54019;61.746;16.106;2023-02-01T11:34:44;23.60;25.40
67101;DHT22;54019;61.746;16.106;2023-02-01T11:37:18;23.60;25.50
67101;DHT22;54019;61.746;16.106;2023-02-01T11:39:54;23.60;25.50
67101;DHT22;54019;61.746;16.106;2023-02-01T11:42:21;23.60;25.50
67101;DHT22;54019;61.746;16.106;2023-02-01T11:44:48;23.60;25.40
67101;DHT22;54019;61.746;16.106;2023-02-01T11:47:25;23.60;25.40
67101;DHT22;54019;61.746;16.106;2023-02-01T11:49:52;23.60;25.20
67101;DHT22;54019;61.746;16.106;2023-02-01T11:55:42;23.70;25.10
67101;DHT22;54019;61.746;16.106;2023-02-01T12:01:29;23.70;25.40
67101;DHT22;54019;61.746;16.106;2023-02-01T12:06:55;23.70;25.10
67101;DHT22;54019;61.746;16.106;2023-02-01T12:09:32;23.70;25.30
67101;DHT22;54019;61.746;16.106;2023-02-01T12:12:06;23.70;25.40
67101;DHT22;54019;61.746;16.106;2023-02-01T12:14:56;23.70;26.10
67101;DHT22;54019;61.746;16.106;2023-02-01T12:20:43;23.70;26.20
67101;DHT22;54019;61.746;16.106;2023-02-01T12:23:23;23.70;26.80
67101;DHT22;54019;61.746;16.106;2023-02-01T12:26:07;23.60;26.50
67101;DHT22;54019;61.746;16.106;2023-02-01T12:28:51;23.70;26.70
67101;DHT22;54019;61.746;16.106;2023-02-01T12:34:38;23.70;25.80
67101;DHT22;54019;61.746;16.106;2023-02-01T12:37:11;23.70;25.70
67101;DHT22;54019;61.746;16.106;2023-02-01T12:39:42;23.70;25.70
67101;DHT22;54019;61.746;16.106;2023-02-01T12:42:16;23.70;25.40
67101;DHT22;54019;61.746;16.106;2023-02-01T12:44:50;23.70;25.50
67101;DHT22;54019;61.746;16.106;2023-02-01T12:47:22;23.70;25.20
67101;DHT22;54019;61.746;16.106;2023-02-01T12:49:54;23.70;24.90
67101;DHT22;54019;61.746;16.106;2023-02-01T12:52:27;23.70;24.90
67101;DHT22;54019;61.746;16.106;2023-02-01T12:54:58;23.70;24.70
67101;DHT22;54019;61.746;16.106;2023-02-01T12:57:31;23.60;24.50
67101;DHT22;54019;61.746;16.106;2023-02-01T13:00:03;23.60;24.10
67101;DHT22;54019;61.746;16.106;2023-02-01T13:02:35;23.50;24.10
67101;DHT22;54019;61.746;16.106;2023-02-01T13:05:12;23.40;24.10
67101;DHT22;54019;61.746;16.106;2023-02-01T13:07:42;23.40;23.90
67101;DHT22;54019;61.746;16.106;2023-02-01T13:10:15;23.40;23.90
67101;DHT22;54019;61.746;16.106;2023-02-01T13:12:47;23.30;23.80
67101;DHT22;54019;61.746;16.106;2023-02-01T13:15:17;23.40;24.00
67101;DHT22;54019;61.746;16.106;2023-02-01T13:17:46;23.30;23.60
67101;DHT22;54019;61.746;16.106;2023-02-01T13:20:29;23.40;23.50
67101;DHT22;54019;61.746;16.106;2023-02-01T13:22:58;23.40;23.30
67101;DHT22;54019;61.746;16.106;2023-02-01T13:25:34;23.40;23.20
67101;DHT22;54019;61.746;16.106;2023-02-01T13:28:06;23.40;23.20
67101;DHT22;54019;61.746;16.106;2023-02-01T13:30:45;23.40;23.20
67101;DHT22;54019;61.746;16.106;2023-02-01T13:33:51;23.40;23.30
67101;DHT22;54019;61.746;16.106;2023-02-01T13:39:41;23.40;23.00
67101;DHT22;54019;61.746;16.106;2023-02-01T13:42:15;23.40;22.90
67101;DHT22;54019;61.746;16.106;2023-02-01T13:44:55;23.40;23.30
67101;DHT22;54019;61.746;16.106;2023-02-01T13:47:27;23.40;23.70
67101;DHT22;54019;61.746;16.106;2023-02-01T13:49:56;23.40;24.40
67101;DHT22;54019;61.746;16.106;2023-02-01T13:52:36;23.30;23.80
67101;DHT22;54019;61.746;16.106;2023-02-01T13:55:28;23.30;23.70
67101;DHT22;54019;61.746;16.106;2023-02-01T13:58:15;23.30;24.30
67101;DHT22;54019;61.746;16.106;2023-02-01T14:00:48;23.40;24.30
67101;DHT22;54019;61.746;16.106;2023-02-01T14:03:20;23.40;24.60
67101;DHT22;54019;61.746;16.106;2023-02-01T14:06:18;23.40;24.40
67101;DHT22;54019;61.746;16.106;2023-02-01T14:09:33;23.40;24.10
67101;DHT22;54019;61.746;16.106;2023-02-01T14:15:25;23.40;23.60
67101;DHT22;54019;61.746;16.106;2023-02-01T14:17:51;23.50;23.50
67101;DHT22;54019;61.746;16.106;2023-02-01T14:20:45;23.50;23.50
67101;DHT22;54019;61.746;16.106;2023-02-01T14:23:22;23.50;23.30
67101;DHT22;54019;61.746;16.106;2023-02-01T14:26:04;23.40;23.20
67101;DHT22;54019;61.746;16.106;2023-02-01T14:28:31;23.40;23.20
67101;DHT22;54019;61.746;16.106;2023-02-01T14:30:59;23.40;23.20
67101;DHT22;54019;61.746;16.106;2023-02-01T14:33:27;23.40;23.20
67101;DHT22;54019;61.746;16.106;2023-02-01T14:36:06;23.30;23.40
67101;DHT22;54019;61.746;16.106;2023-02-01T14:38:34;23.30;22.90
67101;DHT22;54019;61.746;16.106;2023-02-01T14:41:25;23.20;22.70
67101;DHT22;54019;61.746;16.106;2023-02-01T14:44:28;23.20;22.70
67101;DHT22;54019;61.746;16.106;2023-02-01T14:53:10;23.20;22.70
67101;DHT22;54019;61.746;16.106;2023-02-01T14:55:42;23.20;22.40
67101;DHT22;54019;61.746;16.106;2023-02-01T14:58:18;23.20;22.80
67101;DHT22;54019;61.746;16.106;2023-02-01T15:00:52;23.30;23.90
67101;DHT22;54019;61.746;16.106;2023-02-01T15:03:45;23.30;23.40
67101;DHT22;54019;61.746;16.106;2023-02-01T15:06:26;23.40;23.30
67101;DHT22;54019;61.746;16.106;2023-02-01T15:08:56;23.40;22.90
67101;DHT22;54019;61.746;16.106;2023-02-01T15:11:22;23.40;22.90
67101;DHT22;54019;61.746;16.106;2023-02-01T15:13:49;23.30;22.80
67101;DHT22;54019;61.746;16.106;2023-02-01T15:16:16;23.20;23.10
67101;DHT22;54019;61.746;16.106;2023-02-01T15:18:42;23.20;23.10
67101;DHT22;54019;61.746;16.106;2023-02-01T15:21:17;23.00;21.90
67101;DHT22;54019;61.746;16.106;2023-02-01T15:23:43;23.00;21.70
67101;DHT22;54019;61.746;16.106;2023-02-01T15:26:09;22.90;22.00
67101;DHT22;54019;61.746;16.106;2023-02-01T15:28:35;23.00;22.80
67101;DHT22;54019;61.746;16.106;2023-02-01T15:31:02;22.90;23.00
67101;DHT22;54019;61.746;16.106;2023-02-01T15:33:29;22.90;22.80
67101;DHT22;54019;61.746;16.106;2023-02-01T15:36:07;23.00;22.60
67101;DHT22;54019;61.746;16.106;2023-02-01T15:38:38;23.00;23.00
67101;DHT22;54019;61.746;16.106;2023-02-01T15:41:11;22.90;22.60
67101;DHT22;54019;61.746;16.106;2023-02-01T15:43:40;23.00;22.70
67101;DHT22;54019;61.746;16.106;2023-02-01T15:46:10;23.00;22.90
67101;DHT22;54019;61.746;16.106;2023-02-01T15:48:39;23.00;22.90
67101;DHT22;54019;61.746;16.106;2023-02-01T15:51:17;23.00;22.90
67101;DHT22;54019;61.746;16.106;2023-02-01T15:53:47;23.00;23.20
67101;DHT22;54019;61.746;16.106;2023-02-01T15:56:14;23.10;23.10
67101;DHT22;54019;61.746;16.106;2023-02-01T15:58:42;23.20;23.10
67101;DHT22;54019;61.746;16.106;2023-02-01T16:01:13;23.20;22.70
67101;DHT22;54019;61.746;16.106;2023-02-01T16:03:41;23.20;23.00
67101;DHT22;54019;61.746;16.106;2023-02-01T16:06:08;23.20;22.60
67101;DHT22;54019;61.746;16.106;2023-02-01T16:08:35;23.20;26.30
67101;DHT22;54019;61.746;16.106;2023-02-01T16:11:20;23.10;24.60
67101;DHT22;54019;61.746;16.106;2023-02-01T16:13:46;23.10;24.60
67101;DHT22;54019;61.746;16.106;2023-02-01T16:16:12;23.10;24.70